KLGC/LGC METAR and TAF weather

Enter ICAO airport designator
Station Type Date Time Source
KLGC METAR 2020/01/22 18:15 UTC NOAA

KLGC 221815Z AUTO 14006KT 10SM CLR 08/M14 A3032 RMK AO2 T00761139


Station Type Date Time Source
KLGC Decoded METAR 2020/01/22 18:15 UTC NOAA

La Grange, Callaway Airport, GA, United States (KLGC) 33-00-32N 085-04-21W
Jan 22, 2020 - 01:15 PM EST / 2020.01.22 1815 UTC
Wind: from the SE (140 degrees) at 7 MPH (6 KT):0
Visibility: 10 mile(s):0
Sky conditions: clear
Temperature: 45.7 F (7.6 C)
Dew Point: 7.0 F (-13.9 C)
Relative Humidity: 20%
Pressure (altimeter): 30.32 in. Hg (1026 hPa)
ob: KLGC 221815Z AUTO 14006KT 10SM CLR 08/M14 A3032 RMK AO2 T00761139
cycle: 18

Station Type Date Time Source
KLGC TAF UTC NOAA

Error!

Example: see airport list